createdAt,value
2018-09-28T00:00:12.336Z,0
2018-09-28T00:00:52.903Z,0
2018-09-28T00:01:33.470Z,0
2018-09-28T00:02:14.023Z,0
2018-09-28T00:02:54.586Z,0
2018-09-28T00:03:35.151Z,0
2018-09-28T00:04:15.768Z,0
2018-09-28T00:04:56.323Z,0
2018-09-28T00:05:36.952Z,0
2018-09-28T00:06:17.502Z,0
2018-09-28T00:06:58.063Z,0
2018-09-28T00:07:38.635Z,0
2018-09-28T00:08:19.210Z,0
2018-09-28T00:08:59.787Z,0
2018-09-28T00:09:40.353Z,0
2018-09-28T00:10:20.923Z,0
2018-09-28T00:11:01.487Z,0
2018-09-28T00:11:42.035Z,0
2018-09-28T00:12:22.619Z,0
2018-09-28T00:13:03.188Z,0
2018-09-28T00:13:43.753Z,0
2018-09-28T00:14:24.316Z,0
2018-09-28T00:15:04.891Z,0
2018-09-28T00:15:45.473Z,0
2018-09-28T00:16:26.032Z,0
2018-09-28T00:17:06.603Z,0
2018-09-28T00:17:47.173Z,0
2018-09-28T00:18:27.799Z,0
2018-09-28T00:19:08.367Z,0
2018-09-28T00:19:48.921Z,0
2018-09-28T00:20:29.486Z,0
2018-09-28T00:21:10.049Z,0
2018-09-28T00:21:50.722Z,0
2018-09-28T00:22:31.378Z,0
2018-09-28T00:23:12.009Z,0
2018-09-28T00:23:52.594Z,0
2018-09-28T00:24:33.165Z,0
2018-09-28T00:25:13.725Z,0
2018-09-28T00:25:54.334Z,0
2018-09-28T00:26:34.842Z,0
2018-09-28T00:27:15.406Z,0
2018-09-28T00:27:55.976Z,0
2018-09-28T00:28:36.535Z,0
2018-09-28T00:29:17.121Z,0
2018-09-28T00:29:57.676Z,0
2018-09-28T00:30:38.240Z,0
2018-09-28T00:31:18.797Z,0
2018-09-28T00:31:59.370Z,0
2018-09-28T00:32:39.934Z,0
2018-09-28T00:33:20.604Z,0
2018-09-28T00:34:01.179Z,0
2018-09-28T00:34:41.742Z,0
2018-09-28T00:35:22.297Z,0
2018-09-28T00:36:02.920Z,0
2018-09-28T00:36:43.431Z,0
2018-09-28T00:37:23.987Z,0
2018-09-28T00:38:04.545Z,0
2018-09-28T00:38:45.114Z,0
2018-09-28T00:39:25.699Z,0
2018-09-28T00:40:06.274Z,0
2018-09-28T00:40:46.831Z,0
2018-09-28T00:41:27.427Z,0
2018-09-28T00:42:07.970Z,0
2018-09-28T00:42:48.552Z,0
2018-09-28T00:43:29.120Z,0
2018-09-28T00:44:09.693Z,0
2018-09-28T00:44:50.283Z,0
2018-09-28T00:45:30.872Z,0
2018-09-28T00:46:11.445Z,0
2018-09-28T00:46:52.007Z,0
2018-09-28T00:47:32.568Z,0
2018-09-28T00:48:13.128Z,0
2018-09-28T00:48:53.736Z,0
2018-09-28T00:49:34.291Z,0
2018-09-28T00:50:14.841Z,0
2018-09-28T00:50:55.396Z,0
2018-09-28T00:51:35.979Z,0
2018-09-28T00:52:16.540Z,0
2018-09-28T00:52:57.135Z,0
2018-09-28T00:53:37.701Z,0
2018-09-28T00:54:18.264Z,0
2018-09-28T00:54:58.810Z,0
2018-09-28T00:55:39.375Z,0
2018-09-28T00:56:19.933Z,0
2018-09-28T00:57:00.492Z,0
2018-09-28T00:57:41.061Z,0
2018-09-28T00:58:21.629Z,0
2018-09-28T00:59:02.194Z,0
2018-09-28T00:59:42.760Z,0
2018-09-28T01:00:23.344Z,0
2018-09-28T01:01:03.909Z,0
2018-09-28T01:01:44.505Z,0
2018-09-28T01:02:25.075Z,0
2018-09-28T01:03:05.640Z,0
2018-09-28T01:03:46.206Z,0
2018-09-28T01:04:26.766Z,0
2018-09-28T01:05:07.327Z,0
2018-09-28T01:05:47.877Z,0
2018-09-28T01:06:28.435Z,0
2018-09-28T01:07:09.023Z,0
2018-09-28T01:07:49.580Z,0
2018-09-28T01:08:30.140Z,0
2018-09-28T01:09:10.732Z,0
2018-09-28T01:09:51.303Z,0
2018-09-28T01:10:31.875Z,0
2018-09-28T01:11:12.439Z,0
2018-09-28T01:11:52.999Z,0
2018-09-28T01:12:33.557Z,0
2018-09-28T01:13:14.116Z,0
2018-09-28T01:13:54.679Z,0
2018-09-28T01:14:35.238Z,0
2018-09-28T01:15:15.839Z,0
2018-09-28T01:15:56.389Z,0
2018-09-28T01:16:36.957Z,0
2018-09-28T01:17:17.523Z,0
2018-09-28T01:17:58.075Z,0
2018-09-28T01:18:38.657Z,0
2018-09-28T01:19:19.223Z,0
2018-09-28T01:19:59.783Z,0
2018-09-28T01:20:40.331Z,0
2018-09-28T01:21:20.904Z,0
2018-09-28T01:22:01.466Z,0
2018-09-28T01:22:42.047Z,0
2018-09-28T01:23:22.606Z,0
2018-09-28T01:24:03.167Z,0
2018-09-28T01:24:43.731Z,0
2018-09-28T01:25:24.331Z,0
2018-09-28T01:26:04.905Z,0
2018-09-28T01:26:45.463Z,0
2018-09-28T01:27:26.023Z,0
2018-09-28T01:28:06.584Z,0
2018-09-28T01:28:47.173Z,0
2018-09-28T01:29:27.767Z,0
2018-09-28T01:30:08.328Z,0
2018-09-28T01:30:48.900Z,0
2018-09-28T01:31:29.479Z,0
2018-09-28T01:32:10.058Z,0
2018-09-28T01:32:50.621Z,0
2018-09-28T01:33:31.172Z,0
2018-09-28T01:34:18.264Z,0
2018-09-28T01:34:59.765Z,0
2018-09-28T01:35:40.363Z,0
2018-09-28T01:36:20.945Z,0
2018-09-28T01:37:01.507Z,0
2018-09-28T01:37:42.076Z,0
2018-09-28T01:38:22.627Z,0
2018-09-28T01:39:03.190Z,0
2018-09-28T01:39:43.762Z,0
2018-09-28T01:40:24.295Z,0
2018-09-28T01:41:04.860Z,0
2018-09-28T01:41:45.413Z,0
2018-09-28T01:42:25.980Z,0
2018-09-28T01:43:06.535Z,0
2018-09-28T01:43:47.104Z,0
2018-09-28T01:44:27.666Z,0
2018-09-28T01:45:08.220Z,0
2018-09-28T01:45:48.805Z,0
2018-09-28T01:46:29.349Z,0
2018-09-28T01:47:09.907Z,0
2018-09-28T01:47:50.454Z,0
2018-09-28T01:48:31.027Z,0
2018-09-28T01:49:11.590Z,0
2018-09-28T01:49:52.160Z,0
2018-09-28T01:50:32.725Z,0
2018-09-28T01:51:13.283Z,0
2018-09-28T01:51:53.844Z,0
2018-09-28T01:52:34.421Z,0
2018-09-28T01:53:14.998Z,0
2018-09-28T01:53:55.572Z,0
2018-09-28T01:54:36.126Z,0
2018-09-28T01:55:16.678Z,0
2018-09-28T01:55:57.240Z,0
2018-09-28T01:56:37.801Z,0
2018-09-28T01:57:18.364Z,0
2018-09-28T01:57:58.916Z,0
2018-09-28T01:58:39.488Z,0
2018-09-28T01:59:20.044Z,0
2018-09-28T02:00:00.619Z,0
2018-09-28T02:00:41.183Z,0
2018-09-28T02:01:21.744Z,0
2018-09-28T02:02:02.316Z,0
2018-09-28T02:02:42.879Z,0
2018-09-28T02:03:23.437Z,0
2018-09-28T02:04:03.998Z,0
2018-09-28T02:04:44.552Z,0
2018-09-28T02:05:25.168Z,0
2018-09-28T02:06:05.683Z,0
2018-09-28T02:06:46.242Z,0
2018-09-28T02:07:26.803Z,0
2018-09-28T02:08:07.357Z,0
2018-09-28T02:08:47.946Z,0
2018-09-28T02:09:28.509Z,0
2018-09-28T02:10:09.069Z,0
2018-09-28T02:10:49.641Z,0
2018-09-28T02:11:30.212Z,0
2018-09-28T02:12:10.770Z,0
2018-09-28T02:12:51.327Z,0
2018-09-28T02:13:31.886Z,0
2018-09-28T02:14:12.454Z,0
2018-09-28T02:14:53.020Z,0
2018-09-28T02:15:33.627Z,0
2018-09-28T02:16:14.149Z,0
2018-09-28T02:16:54.707Z,0
2018-09-28T02:17:35.273Z,0
2018-09-28T02:18:15.850Z,0
2018-09-28T02:18:56.419Z,0
2018-09-28T02:19:36.980Z,0
2018-09-28T02:20:17.547Z,0
2018-09-28T02:20:58.112Z,0
2018-09-28T02:21:38.703Z,0
2018-09-28T02:22:19.262Z,0
2018-09-28T02:22:59.816Z,0
2018-09-28T02:23:40.377Z,0
2018-09-28T02:24:20.933Z,0
2018-09-28T02:25:01.495Z,0
2018-09-28T02:25:42.047Z,0
2018-09-28T02:26:22.610Z,0
2018-09-28T02:27:03.173Z,0
2018-09-28T02:27:43.732Z,0
2018-09-28T02:28:24.294Z,0
2018-09-28T02:29:04.848Z,0
2018-09-28T02:29:45.413Z,0
2018-09-28T02:30:25.972Z,0
2018-09-28T02:31:07.163Z,0
2018-09-28T02:31:50.388Z,0
2018-09-28T02:32:30.948Z,0
2018-09-28T02:33:13.008Z,0
2018-09-28T02:33:53.593Z,0
2018-09-28T02:34:34.159Z,0
2018-09-28T02:35:14.731Z,0
2018-09-28T02:35:55.303Z,0
2018-09-28T02:36:36.776Z,0
2018-09-28T02:37:17.339Z,0
2018-09-28T02:37:57.895Z,0
2018-09-28T02:38:38.452Z,0
2018-09-28T02:39:19.069Z,0
2018-09-28T02:39:59.663Z,0
2018-09-28T02:40:40.241Z,0
2018-09-28T02:41:20.801Z,0
2018-09-28T02:42:01.361Z,0
2018-09-28T02:42:41.913Z,0
2018-09-28T02:43:22.483Z,0
2018-09-28T02:44:03.049Z,0
2018-09-28T02:44:43.599Z,0
2018-09-28T02:45:24.178Z,0
2018-09-28T02:46:04.758Z,0
2018-09-28T02:46:45.347Z,0
2018-09-28T02:47:25.898Z,0
2018-09-28T02:48:06.487Z,0
2018-09-28T02:48:47.076Z,0
2018-09-28T02:49:27.639Z,0
2018-09-28T02:50:08.209Z,0
2018-09-28T02:50:48.787Z,0
2018-09-28T02:51:29.361Z,0
2018-09-28T02:52:09.937Z,0
2018-09-28T02:52:50.491Z,0
2018-09-28T02:53:31.144Z,0
2018-09-28T02:54:11.693Z,0
2018-09-28T02:54:52.265Z,0
2018-09-28T02:55:32.825Z,0
2018-09-28T02:56:13.395Z,0
2018-09-28T02:56:54.003Z,0
2018-09-28T02:57:34.503Z,0
2018-09-28T02:58:15.082Z,0
2018-09-28T02:58:55.643Z,0
2018-09-28T02:59:36.222Z,0
2018-09-28T03:00:16.777Z,0
2018-09-28T03:00:57.348Z,0
2018-09-28T03:01:37.909Z,0
2018-09-28T03:02:18.528Z,0
2018-09-28T03:02:59.104Z,0
2018-09-28T03:03:39.667Z,0
2018-09-28T03:04:20.225Z,0
2018-09-28T03:05:00.795Z,0
2018-09-28T03:05:41.353Z,0
2018-09-28T03:06:21.972Z,0
2018-09-28T03:07:02.470Z,0
2018-09-28T03:07:43.039Z,0
2018-09-28T03:08:23.601Z,0
2018-09-28T03:09:04.159Z,0
2018-09-28T03:09:44.715Z,0
2018-09-28T03:10:25.285Z,0
2018-09-28T03:11:05.866Z,0
2018-09-28T03:11:46.409Z,0
2018-09-28T03:12:26.974Z,0
2018-09-28T03:13:07.522Z,0
2018-09-28T03:13:48.087Z,0
2018-09-28T03:14:28.668Z,0
2018-09-28T03:15:09.228Z,0
2018-09-28T03:15:56.529Z,0
2018-09-28T03:16:37.086Z,0
2018-09-28T03:17:17.661Z,0
2018-09-28T03:17:58.220Z,0
2018-09-28T03:18:38.783Z,0
2018-09-28T03:19:19.334Z,0
2018-09-28T03:19:59.901Z,0
2018-09-28T03:20:40.454Z,0
2018-09-28T03:21:21.013Z,0
2018-09-28T03:22:01.605Z,0
2018-09-28T03:22:42.156Z,0
2018-09-28T03:23:22.714Z,0
2018-09-28T03:24:03.277Z,0
2018-09-28T03:24:43.846Z,0
2018-09-28T03:25:24.403Z,0
2018-09-28T03:26:05.141Z,0
2018-09-28T03:26:45.546Z,0
2018-09-28T03:27:26.108Z,0
2018-09-28T03:28:06.671Z,0
2018-09-28T03:28:47.257Z,0
2018-09-28T03:29:27.816Z,0
2018-09-28T03:30:08.370Z,0
2018-09-28T03:30:48.934Z,0
2018-09-28T03:31:29.517Z,0
2018-09-28T03:32:10.068Z,0
2018-09-28T03:32:50.637Z,0
2018-09-28T03:33:31.203Z,0
2018-09-28T03:34:11.755Z,0
2018-09-28T03:34:52.318Z,0
2018-09-28T03:35:32.888Z,0
2018-09-28T03:36:13.435Z,0
2018-09-28T03:36:54.003Z,0
2018-09-28T03:37:34.574Z,0
2018-09-28T03:38:15.128Z,0
2018-09-28T03:38:55.687Z,0
2018-09-28T03:39:36.245Z,0
2018-09-28T03:40:16.810Z,0
2018-09-28T03:40:57.399Z,0
2018-09-28T03:41:37.946Z,0
2018-09-28T03:42:18.507Z,0
2018-09-28T03:42:59.077Z,0
2018-09-28T03:43:39.663Z,0
2018-09-28T03:44:20.221Z,0
2018-09-28T03:45:00.788Z,0
2018-09-28T03:45:41.334Z,0
2018-09-28T03:46:21.911Z,0
2018-09-28T03:47:02.467Z,0
2018-09-28T03:47:43.029Z,0
2018-09-28T03:48:23.595Z,0
2018-09-28T03:49:04.157Z,0
2018-09-28T03:49:44.719Z,0
2018-09-28T03:50:25.304Z,0
2018-09-28T03:51:05.855Z,0
2018-09-28T03:51:46.417Z,0
2018-09-28T03:52:26.972Z,0
2018-09-28T03:53:07.537Z,0
2018-09-28T03:53:48.101Z,0
2018-09-28T03:54:28.656Z,0
2018-09-28T03:57:01.799Z,0
2018-09-28T03:57:42.387Z,0
2018-09-28T03:58:22.941Z,0
2018-09-28T03:59:03.499Z,0
2018-09-28T03:59:44.057Z,0
2018-09-28T04:00:24.617Z,0
2018-09-28T04:01:05.170Z,0
2018-09-28T04:01:45.759Z,0
2018-09-28T04:02:28.966Z,0
2018-09-28T04:03:12.477Z,0
2018-09-28T04:03:53.037Z,0
2018-09-28T04:04:44.328Z,0
2018-09-28T04:05:24.876Z,0
2018-09-28T04:06:09.999Z,0
2018-09-28T04:08:23.248Z,0
2018-09-28T04:09:03.806Z,0
2018-09-28T04:09:44.359Z,0
2018-09-28T04:10:24.953Z,0
2018-09-28T04:11:05.512Z,0
2018-09-28T04:11:46.086Z,0
2018-09-28T04:12:26.652Z,0
2018-09-28T04:13:07.201Z,0
2018-09-28T04:13:47.767Z,0
2018-09-28T04:14:28.323Z,0
2018-09-28T04:15:08.942Z,0
2018-09-28T04:15:49.441Z,0
2018-09-28T04:16:29.997Z,0
2018-09-28T04:17:10.561Z,0
2018-09-28T04:17:51.129Z,0
2018-09-28T04:18:31.687Z,0
2018-09-28T04:19:12.240Z,0
2018-09-28T04:19:52.800Z,0
2018-09-28T04:20:33.356Z,0
2018-09-28T04:21:13.945Z,0
2018-09-28T04:21:54.608Z,0
2018-09-28T04:22:35.081Z,0
2018-09-28T04:23:15.649Z,0
2018-09-28T04:23:56.208Z,0
2018-09-28T04:24:36.776Z,0
2018-09-28T04:26:34.440Z,0
2018-09-28T04:27:15.073Z,0
2018-09-28T04:27:55.632Z,0
2018-09-28T04:28:36.188Z,0
2018-09-28T04:29:16.742Z,0
2018-09-28T04:29:57.314Z,4
2018-09-28T04:30:37.901Z,4
2018-09-28T04:31:18.449Z,4
2018-09-28T04:31:59.012Z,0
2018-09-28T04:32:39.568Z,4
2018-09-28T04:33:20.132Z,4
2018-09-28T04:34:00.709Z,4
2018-09-28T04:34:41.272Z,4
2018-09-28T04:35:21.825Z,4
2018-09-28T04:36:02.401Z,4
2018-09-28T04:36:42.952Z,8
2018-09-28T04:37:23.523Z,8
2018-09-28T04:38:04.082Z,8
2018-09-28T04:38:44.652Z,8
2018-09-28T04:39:25.272Z,12
2018-09-28T04:40:05.835Z,12
2018-09-28T04:40:46.391Z,12
2018-09-28T04:41:26.947Z,16
2018-09-28T04:42:07.509Z,16
2018-09-28T04:42:48.083Z,16
2018-09-28T04:43:28.655Z,20
2018-09-28T04:44:09.203Z,24
2018-09-28T04:44:49.769Z,24
2018-09-28T04:45:30.351Z,28
2018-09-28T04:46:10.886Z,28
2018-09-28T04:46:51.458Z,32
2018-09-28T04:47:32.019Z,36
2018-09-28T04:48:12.597Z,36
2018-09-28T04:48:53.145Z,40
2018-09-28T04:49:33.698Z,44
2018-09-28T04:50:14.259Z,48
2018-09-28T04:50:54.814Z,52
2018-09-28T04:51:35.368Z,60
2018-09-28T04:52:15.930Z,64
2018-09-28T04:52:56.677Z,72
2018-09-28T04:53:37.237Z,72
2018-09-28T04:54:17.839Z,76
2018-09-28T04:54:58.453Z,80
2018-09-28T04:55:39.011Z,88
2018-09-28T04:56:19.573Z,84
2018-09-28T04:57:00.144Z,80
2018-09-28T04:57:40.775Z,72
2018-09-28T04:58:21.349Z,68
2018-09-28T04:59:01.906Z,64
2018-09-28T04:59:42.457Z,68
2018-09-28T05:00:23.001Z,68
2018-09-28T05:01:03.560Z,68
2018-09-28T05:01:44.160Z,68
2018-09-28T05:02:24.718Z,72
2018-09-28T05:03:05.278Z,80
2018-09-28T05:03:45.836Z,80
2018-09-28T05:04:26.409Z,92
2018-09-28T05:05:06.967Z,108
2018-09-28T05:05:47.557Z,120
2018-09-28T05:06:28.114Z,140
2018-09-28T05:07:08.696Z,152
2018-09-28T05:07:49.261Z,164
2018-09-28T05:08:29.827Z,168
2018-09-28T05:09:10.412Z,172
2018-09-28T05:09:50.974Z,184
2018-09-28T05:10:31.539Z,196
2018-09-28T05:11:12.100Z,204
2018-09-28T05:11:52.705Z,216
2018-09-28T05:12:33.265Z,240
2018-09-28T05:13:13.919Z,264
2018-09-28T05:13:54.421Z,276
2018-09-28T05:14:35.069Z,292
2018-09-28T05:15:15.661Z,288
2018-09-28T05:15:56.235Z,272
2018-09-28T05:16:36.789Z,244
2018-09-28T05:17:17.346Z,228
2018-09-28T05:17:57.909Z,220
2018-09-28T05:18:38.484Z,216
2018-09-28T05:19:19.043Z,216
2018-09-28T05:19:59.612Z,240
2018-09-28T05:20:40.156Z,272
2018-09-28T05:21:20.736Z,300
2018-09-28T05:22:01.298Z,272
2018-09-28T05:22:41.858Z,292
2018-09-28T05:23:22.427Z,340
2018-09-28T05:24:03.000Z,368
2018-09-28T05:24:43.566Z,340
2018-09-28T05:25:24.160Z,264
2018-09-28T05:26:04.701Z,204
2018-09-28T05:26:45.270Z,180
2018-09-28T05:27:25.843Z,176
2018-09-28T05:28:06.393Z,184
2018-09-28T05:28:46.974Z,180
2018-09-28T05:29:27.519Z,168
2018-09-28T05:30:08.110Z,168
2018-09-28T05:30:53.971Z,176
2018-09-28T05:31:29.377Z,192
2018-09-28T05:32:09.933Z,192
2018-09-28T05:32:50.657Z,192
2018-09-28T05:33:30.935Z,192
2018-09-28T05:34:11.497Z,192
2018-09-28T05:34:52.060Z,192
2018-09-28T05:35:32.622Z,196
2018-09-28T05:36:13.176Z,212
2018-09-28T05:36:53.742Z,232
2018-09-28T05:37:34.321Z,244
2018-09-28T05:38:14.909Z,244
2018-09-28T05:38:55.475Z,216
2018-09-28T05:39:36.194Z,176
2018-09-28T05:40:16.601Z,156
2018-09-28T05:40:57.155Z,152
2018-09-28T05:41:37.715Z,148
2018-09-28T05:42:18.278Z,140
2018-09-28T05:42:58.849Z,136
2018-09-28T05:43:39.456Z,128
2018-09-28T05:44:20.015Z,128
2018-09-28T05:45:00.867Z,140
2018-09-28T05:45:42.323Z,152
2018-09-28T05:46:22.941Z,160
2018-09-28T05:47:03.472Z,160
2018-09-28T05:47:44.033Z,156
2018-09-28T05:48:24.639Z,152
2018-09-28T05:49:05.236Z,152
2018-09-28T05:49:46.774Z,152
2018-09-28T05:50:27.357Z,144
2018-09-28T05:51:08.312Z,132
2018-09-28T05:51:48.935Z,128
2018-09-28T05:52:29.509Z,132
2018-09-28T05:53:10.070Z,140
2018-09-28T05:53:50.689Z,144
2018-09-28T05:54:31.274Z,140
2018-09-28T05:55:11.829Z,140
2018-09-28T05:55:52.386Z,132
2018-09-28T05:56:32.955Z,124
2018-09-28T05:57:13.875Z,120
2018-09-28T05:57:54.749Z,108
2018-09-28T05:58:35.406Z,96
2018-09-28T05:59:15.873Z,88
2018-09-28T05:59:56.428Z,84
2018-09-28T06:00:36.991Z,92
2018-09-28T06:01:17.762Z,92
2018-09-28T06:01:58.714Z,88
2018-09-28T06:02:39.517Z,92
2018-09-28T06:03:20.068Z,96
2018-09-28T06:04:00.652Z,100
2018-09-28T06:04:41.237Z,100
2018-09-28T06:05:21.822Z,104
2018-09-28T06:06:02.676Z,112
2018-09-28T06:06:43.248Z,124
2018-09-28T06:07:23.832Z,132
2018-09-28T06:08:04.394Z,140
2018-09-28T06:08:45.239Z,148
2018-09-28T06:09:25.864Z,152
2018-09-28T06:10:06.426Z,168
2018-09-28T06:10:47.149Z,184
2018-09-28T06:11:27.704Z,192
2018-09-28T06:12:08.642Z,192
2018-09-28T06:12:49.244Z,188
2018-09-28T06:13:30.899Z,188
2018-09-28T06:14:10.650Z,192
2018-09-28T06:14:51.414Z,196
2018-09-28T06:15:32.041Z,204
2018-09-28T06:16:12.970Z,216
2018-09-28T06:16:53.536Z,228
2018-09-28T06:17:34.081Z,236
2018-09-28T06:18:16.575Z,248
2018-09-28T06:18:57.333Z,260
2018-09-28T06:19:37.833Z,272
2018-09-28T06:20:18.411Z,276
2018-09-28T06:20:58.985Z,272
2018-09-28T06:21:40.303Z,264
2018-09-28T06:22:20.830Z,268
2018-09-28T06:23:01.477Z,276
2018-09-28T06:23:42.026Z,284
2018-09-28T06:24:22.757Z,292
2018-09-28T06:25:03.342Z,288
2018-09-28T06:25:44.178Z,280
2018-09-28T06:26:24.684Z,280
2018-09-28T06:27:05.233Z,288
2018-09-28T06:27:45.803Z,308
2018-09-28T06:28:26.601Z,328
2018-09-28T06:29:07.103Z,344
2018-09-28T06:29:47.729Z,352
2018-09-28T06:30:28.215Z,356
2018-09-28T06:31:08.775Z,360
2018-09-28T06:31:49.362Z,384
2018-09-28T06:32:29.925Z,452
2018-09-28T06:33:10.489Z,568
2018-09-28T06:33:51.053Z,676
2018-09-28T06:34:31.637Z,776
2018-09-28T06:35:12.166Z,868
2018-09-28T06:35:52.759Z,928
2018-09-28T06:36:33.271Z,964
2018-09-28T06:37:13.856Z,1036
2018-09-28T06:37:54.430Z,1264
2018-09-28T06:38:35.002Z,1396
2018-09-28T06:39:15.555Z,1620
2018-09-28T06:39:56.108Z,1864
2018-09-28T06:40:36.675Z,2020
2018-09-28T06:41:17.241Z,2084
2018-09-28T06:41:57.883Z,1972
2018-09-28T06:42:38.380Z,1884
2018-09-28T06:43:18.947Z,1860
2018-09-28T06:43:59.523Z,1784
2018-09-28T06:44:40.114Z,1760
2018-09-28T06:45:20.642Z,1712
2018-09-28T06:46:01.193Z,1704
2018-09-28T06:46:41.759Z,1760
2018-09-28T06:47:22.361Z,1808
2018-09-28T06:48:03.531Z,1848
2018-09-28T06:48:44.164Z,1828
2018-09-28T06:49:24.792Z,1712
2018-09-28T06:50:05.344Z,1764
2018-09-28T06:50:45.902Z,1828
2018-09-28T06:51:26.546Z,1748
2018-09-28T06:52:07.035Z,1552
2018-09-28T06:52:47.699Z,1440
2018-09-28T06:53:28.289Z,1276
2018-09-28T06:54:08.902Z,1116
2018-09-28T06:54:49.451Z,1000
2018-09-28T06:55:30.028Z,1060
2018-09-28T06:56:10.583Z,1152
2018-09-28T06:56:51.145Z,1224
2018-09-28T06:57:31.952Z,1284
2018-09-28T06:58:12.750Z,1360
2018-09-28T06:58:53.306Z,1340
2018-09-28T06:59:34.252Z,1300
2018-09-28T07:00:14.852Z,1288
2018-09-28T07:00:55.379Z,1292
2018-09-28T07:01:35.963Z,1320
2018-09-28T07:02:16.526Z,1376
2018-09-28T07:02:57.089Z,1472
2018-09-28T07:03:37.652Z,1636
2018-09-28T07:04:18.214Z,1856
2018-09-28T07:04:58.788Z,2284
2018-09-28T07:05:39.380Z,2836
2018-09-28T07:06:19.950Z,3372
2018-09-28T07:07:00.520Z,3864
2018-09-28T07:07:41.091Z,4568
2018-09-28T07:08:21.648Z,5616
2018-09-28T07:09:02.224Z,6036
2018-09-28T07:09:42.779Z,6556
2018-09-28T07:10:23.354Z,6896
2018-09-28T07:11:03.936Z,7304
2018-09-28T07:11:44.590Z,7752
2018-09-28T07:12:25.119Z,7892
2018-09-28T07:13:05.684Z,14200
2018-09-28T07:13:46.316Z,11092
2018-09-28T07:14:26.889Z,9188
2018-09-28T07:15:07.445Z,13928
2018-09-28T07:15:48.009Z,10440
2018-09-28T07:16:28.683Z,11024
2018-09-28T07:17:09.159Z,11356
2018-09-28T07:17:49.838Z,11012
2018-09-28T07:18:30.407Z,15780
2018-09-28T07:19:10.964Z,13076
2018-09-28T07:19:51.524Z,14652
2018-09-28T07:20:32.078Z,14896
2018-09-28T07:21:12.656Z,18720
2018-09-28T07:21:53.300Z,26912
2018-09-28T07:22:33.867Z,20576
2018-09-28T07:23:14.584Z,14524
2018-09-28T07:23:55.324Z,18528
2018-09-28T07:24:35.876Z,33248
2018-09-28T07:25:16.453Z,45824
2018-09-28T07:25:56.958Z,37120
2018-09-28T07:26:37.551Z,58496
2018-09-28T07:27:18.118Z,90496
2018-09-28T07:27:58.692Z,31936
2018-09-28T07:28:39.296Z,41792
2018-09-28T07:29:19.982Z,41984
2018-09-28T07:30:00.792Z,41664
2018-09-28T07:30:41.337Z,43392
2018-09-28T07:31:21.945Z,78560
2018-09-28T07:32:02.535Z,90528
2018-09-28T07:32:43.108Z,90048
2018-09-28T07:33:23.676Z,93920
2018-09-28T07:34:04.234Z,94272
2018-09-28T07:34:44.807Z,97024
2018-09-28T07:35:25.385Z,90816
2018-09-28T07:36:06.160Z,98432
2018-09-28T07:36:46.637Z,99840
2018-09-28T07:37:27.131Z,98112
2018-09-28T07:38:07.734Z,79328
2018-09-28T07:38:48.317Z,82112
2018-09-28T07:39:28.874Z,33824
2018-09-28T07:40:09.440Z,26656
2018-09-28T07:40:50.022Z,98176
2018-09-28T07:41:30.605Z,101824
2018-09-28T07:42:11.273Z,97408
2018-09-28T07:42:51.808Z,77600
2018-09-28T07:43:32.396Z,60704
2018-09-28T07:44:12.984Z,28256
2018-09-28T07:44:53.578Z,67584
2018-09-28T07:45:34.144Z,76800
2018-09-28T07:46:14.705Z,75296
2018-09-28T07:46:55.393Z,85792
2018-09-28T07:47:35.979Z,83584
2018-09-28T07:48:16.613Z,68864
2018-09-28T07:48:57.086Z,51520
2018-09-28T07:49:37.654Z,66816
2018-09-28T07:50:18.239Z,76448
2018-09-28T07:50:58.821Z,96160
2018-09-28T07:51:39.382Z,75296
2018-09-28T07:52:19.962Z,97728
2018-09-28T07:53:00.538Z,96224
2018-09-28T07:53:41.114Z,89472
2018-09-28T07:54:21.698Z,78912
2018-09-28T07:55:02.236Z,85088
2018-09-28T07:55:42.887Z,89056
2018-09-28T07:56:23.393Z,90560
2018-09-28T07:57:03.962Z,93632
2018-09-28T07:57:44.538Z,90848
2018-09-28T07:58:25.107Z,82720
2018-09-28T07:59:05.670Z,76576
2018-09-28T07:59:46.252Z,82848
2018-09-28T08:00:26.822Z,89120
2018-09-28T08:01:07.391Z,92000
2018-09-28T08:01:48.020Z,84736
2018-09-28T08:02:28.642Z,89248
2018-09-28T08:03:09.217Z,91488
2018-09-28T08:03:49.794Z,89760
2018-09-28T08:04:30.343Z,87232
2018-09-28T08:05:10.909Z,87776
2018-09-28T08:05:51.505Z,88896
2018-09-28T08:06:32.086Z,88736
2018-09-28T08:07:12.660Z,85312
2018-09-28T08:07:53.228Z,85312
2018-09-28T08:08:33.806Z,88768
2018-09-28T08:09:14.378Z,89568
2018-09-28T08:09:54.957Z,92736
2018-09-28T08:10:35.556Z,91936
2018-09-28T08:11:16.115Z,77920
2018-09-28T08:11:56.744Z,81280
2018-09-28T08:12:37.364Z,75168
2018-09-28T08:13:17.920Z,66016
2018-09-28T08:13:58.531Z,60256
2018-09-28T08:14:39.084Z,59136
2018-09-28T08:15:19.668Z,52640
2018-09-28T08:16:00.225Z,47328
2018-09-28T08:16:40.799Z,38720
2018-09-28T08:17:21.397Z,40864
2018-09-28T08:18:02.054Z,39680
2018-09-28T08:18:42.622Z,34272
2018-09-28T08:19:23.185Z,34208
2018-09-28T08:20:03.764Z,30912
2018-09-28T08:20:44.367Z,26880
2018-09-28T08:21:24.921Z,25376
2018-09-28T08:22:05.496Z,23776
2018-09-28T08:22:46.082Z,24448
2018-09-28T08:23:26.687Z,24096
2018-09-28T08:24:07.206Z,14716
2018-09-28T08:24:47.827Z,20416
2018-09-28T08:25:28.372Z,15712
2018-09-28T08:26:08.954Z,12216
2018-09-28T08:26:49.842Z,9108
2018-09-28T08:27:30.484Z,10804
2018-09-28T08:28:11.039Z,10060
2018-09-28T08:28:51.602Z,10796
2018-09-28T08:29:32.179Z,15648
2018-09-28T08:30:12.751Z,13908
2018-09-28T08:30:53.322Z,10488
2018-09-28T08:31:33.888Z,15264
2018-09-28T08:32:14.462Z,13232
2018-09-28T08:32:55.029Z,10780
2018-09-28T08:33:35.629Z,16128
2018-09-28T08:34:16.176Z,18496
2018-09-28T08:34:56.789Z,18432
2018-09-28T08:35:37.365Z,17440
2018-09-28T08:36:18.000Z,15936
2018-09-28T08:36:58.525Z,12532
2018-09-28T08:37:39.100Z,11352
2018-09-28T08:38:19.681Z,9692
2018-09-28T08:39:00.230Z,8648
2018-09-28T08:39:40.786Z,10580
2018-09-28T08:40:21.372Z,10268
2018-09-28T08:41:02.040Z,11500
2018-09-28T08:41:42.670Z,11488
2018-09-28T08:42:23.184Z,12012
2018-09-28T08:43:03.738Z,10600
2018-09-28T08:43:44.330Z,10500
2018-09-28T08:44:24.869Z,10740
2018-09-28T08:45:05.437Z,10504
2018-09-28T08:45:46.041Z,10404
2018-09-28T08:46:26.621Z,10900
2018-09-28T08:47:07.147Z,12132
2018-09-28T08:47:47.712Z,12968
2018-09-28T08:48:28.282Z,12808
2018-09-28T08:49:08.873Z,12988
2018-09-28T08:49:49.454Z,13264
2018-09-28T08:50:30.065Z,13324
2018-09-28T08:51:10.635Z,12528
2018-09-28T08:51:51.220Z,12504
2018-09-28T08:52:31.783Z,10000
2018-09-28T08:53:12.353Z,8700
2018-09-28T08:53:52.912Z,8788
2018-09-28T08:54:33.489Z,9240
2018-09-28T08:55:14.116Z,9520
2018-09-28T08:55:54.696Z,9792
2018-09-28T08:56:35.280Z,10632
2018-09-28T08:57:15.831Z,10312
2018-09-28T08:57:56.397Z,10928
2018-09-28T08:58:36.985Z,12652
2018-09-28T08:59:17.525Z,12676
2018-09-28T08:59:58.180Z,12032
2018-09-28T09:00:38.741Z,11060
2018-09-28T09:01:19.310Z,10124
2018-09-28T09:01:59.931Z,9808
2018-09-28T09:02:40.455Z,10896
2018-09-28T09:03:21.036Z,11088
2018-09-28T09:04:01.606Z,10236
2018-09-28T09:04:42.220Z,9592
2018-09-28T09:05:22.781Z,9324
2018-09-28T09:06:03.352Z,9112
2018-09-28T09:06:44.007Z,8952
2018-09-28T09:07:24.608Z,9068
2018-09-28T09:08:05.180Z,8904
2018-09-28T09:08:45.822Z,8776
2018-09-28T09:09:26.430Z,8520
2018-09-28T09:10:07.007Z,8204
2018-09-28T09:10:47.569Z,8040
2018-09-28T09:11:28.165Z,8264
2018-09-28T09:12:08.789Z,8460
2018-09-28T09:12:49.361Z,8416
2018-09-28T09:13:29.928Z,8776
2018-09-28T09:14:10.475Z,8884
2018-09-28T09:14:51.079Z,9192
2018-09-28T09:15:31.654Z,9584
2018-09-28T09:16:12.218Z,9832
2018-09-28T09:16:52.779Z,9828
2018-09-28T09:17:33.460Z,9840
2018-09-28T09:18:14.107Z,9688
2018-09-28T09:18:54.623Z,9928
2018-09-28T09:19:35.259Z,9568
2018-09-28T09:20:15.830Z,8976
2018-09-28T09:20:56.450Z,8556
2018-09-28T09:21:37.021Z,8268
2018-09-28T09:22:17.597Z,7976
2018-09-28T09:22:58.155Z,7612
2018-09-28T09:23:38.725Z,7144
2018-09-28T09:24:19.311Z,6800
2018-09-28T09:24:59.887Z,6712
2018-09-28T09:25:40.458Z,6728
2018-09-28T09:26:21.021Z,6756
2018-09-28T09:27:01.698Z,6836
2018-09-28T09:27:42.241Z,6976
2018-09-28T09:28:22.802Z,7032
2018-09-28T09:29:03.360Z,6964
2018-09-28T09:29:43.949Z,6872
2018-09-28T09:30:24.555Z,6860
2018-09-28T09:31:05.158Z,6876
2018-09-28T09:31:45.777Z,7008
2018-09-28T09:32:26.364Z,7364
2018-09-28T09:33:07.188Z,7800
2018-09-28T09:33:47.776Z,8232
2018-09-28T09:34:28.307Z,8416